Time;durP1;ratioP1;P1;durP2;ratioP2;P2;SDS_P1;SDS_P2;PMS_P1;PMS_P2;Temp;Humidity;BMP_temperature;BMP_pressure;BME280_temperature;BME280_humidity;BME280_pressure;Samples;Min_cycle;Max_cycle;Signal;HPM_P1;HPM_P2
2023/03/26 00:01:53;;;;;;;83.22;27.00;;;;;;;8.25;100.00;99965.06;4932808;29;20036;-91
2023/03/26 00:04:24;;;;;;;78.85;26.27;;;;;;;8.47;100.00;99994.94;4919667;29;20432;-91
2023/03/26 00:07:11;;;;;;;75.60;26.58;;;;;;;8.70;100.00;99973.72;4957892;29;20035;-93
2023/03/26 00:09:38;;;;;;;78.55;25.88;;;;;;;8.30;100.00;99953.03;4938443;29;20534;-89
2023/03/26 00:12:04;;;;;;;76.32;25.70;;;;;;;8.54;100.00;99977.19;4918649;29;20556;-88
2023/03/26 00:18:02;;;;;;;73.35;25.40;;;;;;;8.64;100.00;99993.16;4939379;29;20126;-91
2023/03/26 00:20:44;;;;;;;68.43;25.83;;;;;;;8.53;100.00;99970.19;4908393;29;20031;-90
2023/03/26 00:23:33;;;;;;;71.95;26.02;;;;;;;8.88;100.00;100005.75;4948930;29;20135;-92
2023/03/26 00:26:22;;;;;;;71.18;26.27;;;;;;;8.71;100.00;99963.81;4952095;29;20388;-91
2023/03/26 00:28:55;;;;;;;86.38;26.33;;;;;;;8.54;100.00;99979.03;4959764;28;20129;-94
2023/03/26 00:31:39;;;;;;;77.28;27.95;;;;;;;8.45;100.00;99983.53;4976484;28;20085;-93
2023/03/26 00:37:35;;;;;;;85.82;31.27;;;;;;;8.24;100.00;100014.25;4976251;28;20103;-92
2023/03/26 00:40:09;;;;;;;86.78;30.55;;;;;;;8.26;100.00;100008.72;4976886;28;20153;-96
2023/03/26 00:43:17;;;;;;;78.45;29.90;;;;;;;8.15;100.00;99998.34;4932189;29;20043;-93
2023/03/26 00:45:58;;;;;;;97.15;34.40;;;;;;;8.03;100.00;100005.81;4926811;29;20130;-94
2023/03/26 00:48:43;;;;;;;93.22;33.45;;;;;;;8.27;100.00;100031.03;4937653;29;20408;-92
2023/03/26 00:54:35;;;;;;;98.15;35.90;;;;;;;8.17;100.00;100037.34;4938985;29;20391;-91
2023/03/26 00:57:11;;;;;;;99.13;36.72;;;;;;;8.09;100.00;100029.25;4918182;29;20116;-87
2023/03/26 00:59:44;;;;;;;100.90;36.38;;;;;;;8.04;100.00;100031.56;4973258;29;20042;-87
2023/03/26 01:09:21;;;;;;;109.97;38.67;;;;;;;7.71;100.00;99999.28;4936029;28;20102;-91
2023/03/26 01:15:36;;;;;;;112.53;39.55;;;;;;;8.13;100.00;100046.69;4934832;29;20192;-88
2023/03/26 01:28:35;;;;;;;104.03;38.20;;;;;;;7.90;100.00;100016.13;4934807;29;20415;-89
2023/03/26 02:09:54;;;;;;;88.90;38.28;;;;;;;8.55;100.00;100037.84;4971624;28;20539;-88
2023/03/26 02:19:35;;;;;;;91.60;38.70;;;;;;;8.59;100.00;100036.50;4972693;28;20415;-90
2023/03/26 02:25:22;;;;;;;81.60;37.63;;;;;;;8.43;99.69;100009.69;4981744;28;20117;-90
2023/03/26 02:31:57;;;;;;;81.10;36.90;;;;;;;8.71;99.52;100044.22;4957327;28;20129;-90
2023/03/26 02:34:32;;;;;;;86.07;38.67;;;;;;;8.53;99.57;100013.03;4953751;28;20047;-90
2023/03/26 02:40:23;;;;;;;77.28;37.25;;;;;;;8.71;99.20;100028.16;4969238;28;20129;-89
2023/03/26 02:42:51;;;;;;;76.32;38.22;;;;;;;8.61;98.86;100002.31;4934715;28;20039;-90
2023/03/26 02:46:05;;;;;;;77.28;36.58;;;;;;;8.81;98.83;100027.00;4954191;28;20043;-90
2023/03/26 02:48:30;;;;;;;73.32;35.65;;;;;;;8.80;98.24;100021.81;4953789;28;20130;-91
2023/03/26 02:50:56;;;;;;;64.00;32.70;;;;;;;8.73;98.20;100010.06;4935108;28;20038;-91
2023/03/26 02:53:22;;;;;;;64.80;32.53;;;;;;;8.82;97.81;100014.44;4908261;29;20362;-91
2023/03/26 02:55:51;;;;;;;71.07;34.63;;;;;;;9.02;97.33;100047.16;4928898;28;20417;-90
2023/03/26 02:58:17;;;;;;;66.20;33.30;;;;;;;9.08;96.75;100052.69;4903201;28;20150;-90
2023/03/26 03:00:46;;;;;;;68.15;33.63;;;;;;;8.98;96.53;100040.44;4935861;29;20094;-90
2023/03/26 03:03:12;;;;;;;65.00;32.40;;;;;;;9.14;95.87;100040.44;4916905;28;20094;-91
2023/03/26 03:05:44;;;;;;;62.05;30.88;;;;;;;9.26;95.51;100043.63;4937337;29;20035;-90
2023/03/26 03:08:10;;;;;;;62.45;30.92;;;;;;;8.90;96.05;100006.41;4927254;29;20051;-90
2023/03/26 03:10:36;;;;;;;62.28;30.08;;;;;;;9.11;96.27;100039.94;4955016;29;20059;-91
2023/03/26 03:13:04;;;;;;;54.22;27.52;;;;;;;9.14;95.85;100039.63;4915323;29;20035;-90
2023/03/26 03:15:30;;;;;;;52.47;27.27;;;;;;;9.15;95.88;100041.28;4922525;29;20043;-91
2023/03/26 03:17:55;;;;;;;49.10;26.75;;;;;;;9.22;95.12;100036.94;4923010;29;20070;-89
2023/03/26 03:20:21;;;;;;;46.45;24.90;;;;;;;9.11;95.61;100021.16;4938542;29;20058;-92
2023/03/26 03:29:35;;;;;;;38.33;20.30;;;;;;;9.16;94.23;100032.25;4958204;28;20062;-89
2023/03/26 03:35:23;;;;;;;36.72;19.33;;;;;;;9.22;94.00;100032.41;4974609;28;20506;-90
2023/03/26 03:51:57;;;;;;;34.55;18.95;;;;;;;9.39;94.27;100094.09;4976555;28;20138;-92
2023/03/26 03:58:04;;;;;;;34.50;18.67;;;;;;;9.44;92.99;100055.03;4974991;28;20098;-90
2023/03/26 04:03:59;;;;;;;26.65;15.45;;;;;;;9.39;92.15;100059.22;4995494;28;20042;-90
2023/03/26 04:20:16;;;;;;;4.47;3.28;;;;;;;10.16;87.77;100054.25;4975097;28;20525;-90
2023/03/26 04:23:25;;;;;;;6.28;3.60;;;;;;;10.47;87.76;100093.81;4928819;28;20046;-92
2023/03/26 04:29:24;;;;;;;5.50;3.90;;;;;;;10.54;86.48;100081.34;4974507;28;20184;-91
2023/03/26 04:32:05;;;;;;;6.55;3.90;;;;;;;10.70;86.61;100093.84;4940960;29;20052;-92
2023/03/26 04:34:32;;;;;;;6.53;4.18;;;;;;;10.77;86.18;100103.75;4914489;29;20054;-91
2023/03/26 04:36:57;;;;;;;6.63;3.88;;;;;;;10.69;85.86;100095.69;4921473;29;20035;-91
2023/03/26 04:42:45;;;;;;;6.68;3.50;;;;;;;10.67;85.99;100092.34;4968106;28;20046;-89
2023/03/26 04:45:29;;;;;;;4.65;3.42;;;;;;;10.73;85.98;100086.28;4944300;29;20154;-92
2023/03/26 04:51:40;;;;;;;5.03;3.88;;;;;;;11.02;85.73;100121.59;4977800;28;20131;-92
2023/03/26 05:15:01;;;;;;;6.10;4.63;;;;;;;11.06;86.79;100126.44;4953747;28;20174;-91
2023/03/26 05:17:29;;;;;;;8.48;4.30;;;;;;;10.86;86.50;100101.00;4920623;29;20051;-91
2023/03/26 05:23:17;;;;;;;7.75;4.47;;;;;;;10.76;86.78;100085.91;4955684;28;20058;-91
2023/03/26 05:25:54;;;;;;;9.38;4.38;;;;;;;11.01;86.31;100139.59;4921520;29;20071;-90
2023/03/26 05:31:07;;;;;;;7.32;4.88;;;;;;;10.90;86.56;100123.84;4946616;29;20150;-92
2023/03/26 05:33:33;;;;;;;6.97;5.32;;;;;;;11.13;86.73;100146.22;4920885;29;20051;-90
2023/03/26 05:36:14;;;;;;;7.60;5.30;;;;;;;11.17;86.01;100128.72;4923089;29;20044;-90
2023/03/26 05:38:56;;;;;;;7.20;4.85;;;;;;;11.26;85.87;100129.53;4925462;29;20079;-91
2023/03/26 05:44:44;;;;;;;8.07;4.78;;;;;;;11.60;84.48;100130.94;4939274;29;20065;-91
2023/03/26 05:47:10;;;;;;;5.63;4.22;;;;;;;11.71;83.34;100113.53;4936400;29;20486;-89
2023/03/26 05:49:54;;;;;;;8.88;4.35;;;;;;;11.67;82.95;100078.03;4894380;29;20079;-90
2023/03/26 05:52:19;;;;;;;7.75;4.68;;;;;;;11.69;82.44;100099.41;4923353;29;20035;-92
2023/03/26 05:54:45;;;;;;;7.32;4.50;;;;;;;12.60;80.04;100121.75;4933863;29;20051;-91
2023/03/26 05:57:10;;;;;;;4.85;3.78;;;;;;;13.37;75.73;100102.31;4921811;29;20047;-92
2023/03/26 05:59:36;;;;;;;4.30;3.45;;;;;;;13.40;74.95;100117.28;4911035;29;20036;-90
2023/03/26 06:02:02;;;;;;;6.60;4.07;;;;;;;12.81;77.15;100127.19;4927082;29;20066;-91
2023/03/26 06:04:27;;;;;;;7.95;5.82;;;;;;;12.95;77.62;100146.25;4911396;29;20448;-92
2023/03/26 06:06:53;;;;;;;6.57;4.57;;;;;;;12.67;78.56;100155.84;4926793;29;20058;-91
2023/03/26 06:09:18;;;;;;;4.22;3.40;;;;;;;12.39;78.74;100144.06;4911922;29;20028;-90
2023/03/26 06:11:44;;;;;;;4.65;3.70;;;;;;;12.51;78.28;100166.00;4934852;29;20575;-92
2023/03/26 06:14:10;;;;;;;6.30;3.70;;;;;;;12.35;79.42;100164.31;4907076;29;20468;-91
2023/03/26 06:16:35;;;;;;;4.32;3.40;;;;;;;12.09;79.16;100133.25;4903474;29;20043;-90
2023/03/26 06:19:01;;;;;;;4.53;3.70;;;;;;;12.10;79.43;100137.59;4928891;29;20118;-91
2023/03/26 06:21:27;;;;;;;5.30;3.17;;;;;;;12.19;77.92;100125.72;4896247;29;20035;-91
2023/03/26 06:23:53;;;;;;;5.55;3.15;;;;;;;12.48;77.30;100164.50;4935616;29;20038;-91
2023/03/26 06:26:18;;;;;;;4.93;2.95;;;;;;;12.48;77.20;100159.13;4921260;29;20103;-94
2023/03/26 06:28:44;;;;;;;4.07;2.90;;;;;;;12.34;76.59;100120.34;4944279;29;20075;-92
2023/03/26 06:31:10;;;;;;;7.88;3.05;;;;;;;12.70;75.68;100162.72;4911108;29;20081;-90
2023/03/26 06:33:37;;;;;;;3.38;2.67;;;;;;;12.71;75.00;100120.41;4906161;29;20150;-92
2023/03/26 06:36:03;;;;;;;5.07;3.17;;;;;;;12.57;75.21;100122.09;4913092;29;20051;-93
2023/03/26 06:41:38;;;;;;;4.22;2.78;;;;;;;12.53;73.94;100153.16;5368480;23;20395;-90
2023/03/26 06:44:04;;;;;;;4.55;2.88;;;;;;;12.26;75.26;100150.06;4978342;28;20042;-93
2023/03/26 06:47:08;;;;;;;4.40;3.30;;;;;;;12.38;75.13;100172.84;4951840;28;20043;-91
2023/03/26 06:49:33;;;;;;;4.85;3.15;;;;;;;12.19;74.97;100138.34;4965803;28;20343;-90
2023/03/26 06:52:01;;;;;;;4.20;3.00;;;;;;;12.45;74.37;100173.81;4927914;28;20106;-93
2023/03/26 06:54:27;;;;;;;5.65;2.88;;;;;;;12.28;73.82;100139.94;4946861;28;20062;-93
2023/03/26 06:56:53;;;;;;;10.35;3.17;;;;;;;12.37;73.61;100160.41;4940090;29;20051;-91
2023/03/26 06:59:18;;;;;;;4.10;2.90;;;;;;;12.61;71.48;100161.16;4907607;29;20098;-92
2023/03/26 07:01:44;;;;;;;5.57;3.60;;;;;;;12.82;70.07;100173.88;4917366;28;20049;-92
2023/03/26 07:04:10;;;;;;;8.90;2.75;;;;;;;12.78;69.54;100153.69;4925208;29;20067;-92
2023/03/26 07:06:35;;;;;;;4.00;2.67;;;;;;;12.96;69.97;100174.91;4931881;28;20045;-91
2023/03/26 07:09:01;;;;;;;5.70;3.05;;;;;;;13.07;69.33;100169.03;4941134;28;20528;-93
2023/03/26 07:11:28;;;;;;;3.97;2.97;;;;;;;12.75;69.13;100141.41;4935709;28;20419;-92
2023/03/26 07:14:01;;;;;;;5.45;2.80;;;;;;;12.74;69.52;100161.34;4952213;28;20045;-91
2023/03/26 07:16:27;;;;;;;4.07;2.85;;;;;;;13.17;68.84;100188.44;4954278;28;20060;-93
2023/03/26 07:18:54;;;;;;;5.53;2.80;;;;;;;13.33;67.62;100170.38;4920475;29;20040;-95
2023/03/26 07:21:20;;;;;;;6.18;2.80;;;;;;;13.46;67.47;100148.91;4952811;28;20030;-96
2023/03/26 07:23:47;;;;;;;5.15;2.92;;;;;;;13.89;66.12;100171.34;4942325;29;20123;-94
2023/03/26 07:26:47;;;;;;;7.18;2.90;;;;;;;14.41;64.49;100163.00;4942675;28;20039;-92
2023/03/26 07:29:22;;;;;;;6.05;2.47;;;;;;;14.54;62.57;100147.75;4944730;28;20066;-90
2023/03/26 07:32:07;;;;;;;5.43;2.60;;;;;;;15.16;60.97;100161.34;4952129;28;20468;-91
2023/03/26 07:34:51;;;;;;;4.63;2.33;;;;;;;15.54;59.81;100180.59;4957203;28;20038;-93
2023/03/26 07:37:24;;;;;;;5.88;2.40;;;;;;;15.87;58.57;100163.59;4957499;28;20041;-95
2023/03/26 07:40:21;;;;;;;5.55;2.55;;;;;;;15.98;57.51;100165.69;4948370;28;20035;-90
2023/03/26 07:42:55;;;;;;;4.57;2.60;;;;;;;16.04;57.27;100183.00;4957954;28;20058;-93
2023/03/26 07:45:25;;;;;;;9.18;2.90;;;;;;;16.90;54.92;100163.03;4944961;28;20081;-94
2023/03/26 07:47:52;;;;;;;7.35;3.08;;;;;;;17.28;53.02;100149.50;4941848;29;20043;-92
2023/03/26 07:50:20;;;;;;;6.95;3.00;;;;;;;16.48;53.61;100159.78;4944303;28;20045;-92
2023/03/26 07:52:49;;;;;;;5.10;2.88;;;;;;;16.18;55.32;100162.16;4940688;28;20102;-94
2023/03/26 07:55:15;;;;;;;6.53;3.22;;;;;;;16.00;55.75;100168.19;4944936;28;20129;-93
2023/03/26 07:57:50;;;;;;;6.60;3.30;;;;;;;15.67;56.48;100157.28;4932009;28;20046;-93
2023/03/26 08:00:17;;;;;;;5.57;3.42;;;;;;;15.58;57.12;100145.81;4982513;28;20031;-94
2023/03/26 08:03:04;;;;;;;6.82;4.03;;;;;;;15.09;58.54;100146.94;4954058;28;20038;-94
2023/03/26 08:05:32;;;;;;;8.30;3.97;;;;;;;15.42;57.09;100106.41;4974603;28;20066;-92
2023/03/26 08:08:34;;;;;;;6.90;3.88;;;;;;;15.58;56.73;100126.84;4928398;29;20039;-94
2023/03/26 08:11:19;;;;;;;9.70;4.38;;;;;;;15.73;56.01;100141.09;4951308;28;20055;-94
2023/03/26 08:14:00;;;;;;;7.65;4.50;;;;;;;16.15;55.32;100147.09;4953969;28;20123;-95
2023/03/26 08:16:47;;;;;;;7.53;4.70;;;;;;;15.81;55.66;100143.56;4951198;28;20141;-94
2023/03/26 08:19:28;;;;;;;6.32;5.13;;;;;;;15.91;55.97;100136.91;4968731;28;20034;-94
2023/03/26 08:21:59;;;;;;;5.50;4.85;;;;;;;18.13;50.40;100129.25;4946313;29;20484;-94
2023/03/26 08:24:29;;;;;;;6.45;5.10;;;;;;;19.74;46.20;100123.53;4943610;28;20053;-95
2023/03/26 08:27:26;;;;;;;8.70;4.47;;;;;;;20.38;44.35;100138.16;4948371;28;20065;-94
2023/03/26 08:30:04;;;;;;;6.13;4.38;;;;;;;21.05;42.06;100102.19;4948626;28;20526;-96
2023/03/26 08:32:30;;;;;;;6.78;4.47;;;;;;;22.00;40.31;100138.06;4942395;29;20051;-93
2023/03/26 08:34:58;;;;;;;7.25;4.18;;;;;;;23.09;37.74;100136.63;4956692;28;20050;-94
2023/03/26 08:37:26;;;;;;;7.25;4.22;;;;;;;21.95;39.48;100110.63;4951676;28;20058;-91
2023/03/26 08:39:52;;;;;;;6.10;4.47;;;;;;;21.22;41.08;100131.47;4953765;28;20039;-93
2023/03/26 08:42:17;;;;;;;5.70;4.10;;;;;;;22.32;39.67;100132.03;4961966;28;20090;-95
2023/03/26 08:45:25;;;;;;;8.25;4.20;;;;;;;22.92;37.66;100120.22;5010739;23;20051;-94
2023/03/26 08:48:45;;;;;;;5.93;3.70;;;;;;;21.58;39.33;100094.69;4962974;28;20035;-93
2023/03/26 08:51:32;;;;;;;9.82;4.10;;;;;;;23.29;36.72;100140.66;4895124;29;20065;-93
2023/03/26 08:54:19;;;;;;;4.72;3.50;;;;;;;22.46;37.31;100127.84;4895047;29;20036;-92
2023/03/26 08:57:09;;;;;;;7.45;4.00;;;;;;;22.78;37.00;100132.66;4951759;28;20475;-92
2023/03/26 09:00:09;;;;;;;7.32;3.60;;;;;;;22.44;37.10;100118.22;4959106;28;20045;-93
2023/03/26 09:03:01;;;;;;;6.97;3.90;;;;;;;20.93;40.16;100125.16;4950608;29;20030;-95
2023/03/26 09:06:02;;;;;;;11.45;3.78;;;;;;;20.33;41.85;100127.13;4936686;28;20046;-91
2023/03/26 09:09:15;;;;;;;6.03;3.70;;;;;;;20.71;41.30;100123.06;4959230;28;20077;-92
2023/03/26 09:12:00;;;;;;;6.72;4.20;;;;;;;19.88;43.56;100140.50;4945930;28;20030;-95
2023/03/26 09:14:45;;;;;;;8.48;3.67;;;;;;;18.66;45.43;100100.63;4939165;29;20501;-92
2023/03/26 09:20:40;;;;;;;7.13;3.60;;;;;;;18.66;45.64;100146.91;4984049;23;20141;-95
2023/03/26 09:23:20;;;;;;;7.05;3.20;;;;;;;18.18;45.14;100151.19;4932974;29;20043;-94
2023/03/26 09:26:10;;;;;;;4.03;3.10;;;;;;;17.96;44.44;100158.91;4918554;29;20039;-91
2023/03/26 09:28:41;;;;;;;5.65;2.70;;;;;;;17.39;44.77;100164.28;4926949;29;20039;-92
2023/03/26 09:31:34;;;;;;;5.63;3.13;;;;;;;16.94;45.81;100156.13;4941916;28;20075;-93
2023/03/26 09:34:35;;;;;;;5.20;2.50;;;;;;;16.88;45.97;100151.59;4946348;28;20039;-93
2023/03/26 09:37:17;;;;;;;7.57;3.10;;;;;;;19.66;41.45;100175.66;4941228;28;20043;-94
2023/03/26 09:40:19;;;;;;;5.53;2.53;;;;;;;22.07;36.72;100146.13;4969719;28;20503;-95
2023/03/26 09:43:15;;;;;;;3.38;2.03;;;;;;;21.45;37.24;100127.84;4861983;29;20033;-92
2023/03/26 09:45:49;;;;;;;4.43;2.60;;;;;;;22.97;35.30;100142.22;4958405;29;20043;-94
2023/03/26 09:48:28;;;;;;;5.15;2.08;;;;;;;22.65;36.13;100171.38;4944738;29;20066;-96
2023/03/26 09:51:12;;;;;;;4.85;2.10;;;;;;;21.02;37.53;100157.31;4938516;29;20044;-92
2023/03/26 09:54:05;;;;;;;5.65;2.13;;;;;;;21.04;38.04;100192.59;4944488;29;20043;-95
2023/03/26 09:57:16;;;;;;;5.07;2.50;;;;;;;21.27;38.08;100192.53;4958613;28;20164;-93
2023/03/26 10:00:06;;;;;;;7.47;2.72;;;;;;;22.13;35.97;100167.03;4952390;28;20081;-92
2023/03/26 10:02:43;;;;;;;4.47;2.33;;;;;;;23.41;33.04;100154.25;4956873;28;20053;-94
2023/03/26 10:05:32;;;;;;;4.70;2.25;;;;;;;24.64;30.49;100161.63;5016648;23;20073;-93
2023/03/26 10:08:13;;;;;;;4.75;2.65;;;;;;;25.38;29.86;100171.59;4921170;29;20067;-93
2023/03/26 10:10:47;;;;;;;3.67;2.55;;;;;;;26.21;29.10;100167.00;4961418;29;20049;-92
2023/03/26 10:13:25;;;;;;;5.30;2.70;;;;;;;25.91;29.22;100141.09;4975619;28;20039;-93
2023/03/26 10:16:03;;;;;;;3.42;2.40;;;;;;;27.56;27.00;100151.38;4939456;29;20039;-95
2023/03/26 10:19:03;;;;;;;5.35;2.30;;;;;;;27.30;27.32;100177.47;4958821;29;20075;-94
2023/03/26 10:22:08;;;;;;;3.53;2.63;;;;;;;27.00;27.00;100184.75;4960800;28;20032;-94
2023/03/26 10:25:19;;;;;;;4.35;2.80;;;;;;;24.26;30.79;100162.72;4929319;29;20061;-95
2023/03/26 10:28:04;;;;;;;4.50;2.70;;;;;;;22.22;34.51;100192.09;4933538;29;20480;-92
2023/03/26 10:31:04;;;;;;;6.63;2.40;;;;;;;24.08;32.17;100196.91;4947479;29;20047;-94
2023/03/26 10:33:51;;;;;;;5.22;2.42;;;;;;;25.75;28.86;100167.78;4941483;29;20035;-95
2023/03/26 10:36:36;;;;;;;3.28;2.55;;;;;;;24.28;30.95;100155.88;4939302;29;20042;-95
2023/03/26 10:39:23;;;;;;;5.30;2.45;;;;;;;22.51;34.69;100184.59;4930876;28;20039;-95
2023/03/26 10:42:10;;;;;;;5.30;2.22;;;;;;;21.04;36.75;100192.59;4954734;28;20043;-94
2023/03/26 10:44:42;;;;;;;5.63;2.28;;;;;;;20.00;39.16;100193.19;4954162;29;20044;-94
2023/03/26 10:47:26;;;;;;;3.63;2.50;;;;;;;19.00;41.50;100191.81;4955597;28;20058;-94
2023/03/26 10:50:02;;;;;;;4.60;2.33;;;;;;;18.56;41.55;100161.06;4967890;28;20050;-92
2023/03/26 10:52:38;;;;;;;4.30;2.40;;;;;;;20.28;38.87;100189.78;4928974;29;20065;-93
2023/03/26 10:55:03;;;;;;;4.78;2.58;;;;;;;20.96;37.29;100179.34;4956031;28;20032;-93
2023/03/26 10:57:54;;;;;;;4.13;2.42;;;;;;;20.17;37.87;100182.44;4965286;28;20358;-93
2023/03/26 11:00:24;;;;;;;3.75;2.10;;;;;;;19.81;38.47;100187.00;4962764;29;20055;-92
2023/03/26 11:03:07;;;;;;;4.32;2.13;;;;;;;19.27;39.29;100151.47;4941254;29;20110;-94
2023/03/26 11:06:10;;;;;;;3.80;2.10;;;;;;;19.35;39.61;100199.34;4917621;29;20074;-95
2023/03/26 11:09:11;;;;;;;3.25;2.17;;;;;;;19.08;40.01;100163.44;4953733;29;20043;-95
2023/03/26 11:11:58;;;;;;;10.38;4.90;;;;;;;20.07;38.61;100201.28;4974060;28;20081;-94
2023/03/26 11:14:40;;;;;;;2.63;1.80;;;;;;;20.01;37.49;100173.03;4972764;28;20098;-94
2023/03/26 11:17:15;;;;;;;4.97;1.98;;;;;;;20.41;36.59;100167.69;4947934;28;20043;-95
2023/03/26 11:19:53;;;;;;;2.83;2.03;;;;;;;21.41;35.90;100203.22;4945042;29;20043;-93
2023/03/26 11:22:31;;;;;;;4.00;2.00;;;;;;;23.59;31.85;100195.03;4936800;29;20035;-95
2023/03/26 11:25:15;;;;;;;3.72;1.80;;;;;;;24.11;30.80;100180.72;4951803;29;20048;-95
2023/03/26 11:28:03;;;;;;;5.47;2.00;;;;;;;24.11;30.31;100199.94;4953675;28;20075;-94
2023/03/26 11:30:58;;;;;;;4.65;2.10;;;;;;;24.60;29.88;100171.47;4953329;29;20099;-94
2023/03/26 11:33:30;;;;;;;2.70;1.77;;;;;;;25.25;29.13;100175.66;4939755;29;20093;-95
2023/03/26 11:36:00;;;;;;;2.95;1.90;;;;;;;24.93;28.91;100161.19;4943684;29;20157;-95
2023/03/26 11:38:36;;;;;;;4.72;1.80;;;;;;;24.59;29.82;100153.34;4947917;29;20102;-93
2023/03/26 11:41:01;;;;;;;6.18;3.20;;;;;;;25.00;29.25;100181.84;4944662;28;20126;-96
2023/03/26 11:43:40;;;;;;;4.00;2.10;;;;;;;25.20;28.61;100174.81;4942827;29;20112;-94
2023/03/26 11:46:09;;;;;;;3.40;2.17;;;;;;;24.96;28.58;100153.25;4943764;29;20039;-94
2023/03/26 11:48:38;;;;;;;4.25;1.45;;;;;;;25.44;27.85;100159.47;4932798;29;20026;-94
2023/03/26 11:51:13;;;;;;;3.10;1.27;;;;;;;24.23;27.72;100159.41;4940139;29;20043;-95
2023/03/26 11:53:39;;;;;;;3.97;1.20;;;;;;;24.32;27.58;100191.88;4935691;29;20047;-94
2023/03/26 11:56:13;;;;;;;2.60;1.50;;;;;;;23.67;28.71;100180.88;4924631;28;20171;-95
2023/03/26 11:58:39;;;;;;;3.72;1.50;;;;;;;24.36;28.37;100165.53;4956799;29;20099;-93
2023/03/26 12:01:13;;;;;;;2.22;1.30;;;;;;;23.50;29.37;100158.19;5033170;23;20062;-94
2023/03/26 12:03:40;;;;;;;3.58;1.25;;;;;;;22.87;30.52;100165.91;4929554;28;20053;-92
2023/03/26 12:06:24;;;;;;;4.55;1.50;;;;;;;22.66;30.49;100131.94;4959402;28;20053;-93
2023/03/26 12:08:50;;;;;;;2.83;1.52;;;;;;;21.94;31.57;100133.59;4943960;29;20124;-95
2023/03/26 12:11:16;;;;;;;3.45;1.70;;;;;;;21.61;32.26;100165.31;4932232;28;20543;-94
2023/03/26 12:13:51;;;;;;;5.30;2.90;;;;;;;20.93;32.68;100153.31;4920754;29;20894;-94
2023/03/26 12:16:20;;;;;;;6.72;4.00;;;;;;;20.49;33.40;100173.91;4949637;28;20504;-93
2023/03/26 12:19:06;;;;;;;3.25;1.70;;;;;;;20.07;34.79;100174.81;4923594;28;20037;-95
2023/03/26 12:21:48;;;;;;;4.50;2.00;;;;;;;19.35;35.18;100186.56;4935958;28;20130;-93
2023/03/26 12:24:31;;;;;;;4.75;1.80;;;;;;;18.83;35.25;100160.81;4929948;29;20073;-95
2023/03/26 12:27:21;;;;;;;3.00;1.52;;;;;;;19.35;34.90;100147.56;4963374;28;20049;-95
2023/03/26 12:30:08;;;;;;;2.70;1.75;;;;;;;19.81;34.36;100135.16;4922364;28;20043;-93
2023/03/26 12:32:40;;;;;;;2.92;1.60;;;;;;;20.19;33.56;100181.13;4927923;29;20429;-95
2023/03/26 12:35:07;;;;;;;2.33;1.52;;;;;;;20.00;33.68;100147.66;4928761;28;20138;-95
2023/03/26 12:37:37;;;;;;;4.63;2.28;;;;;;;19.71;34.18;100134.91;4954486;28;20027;-94
2023/03/26 12:40:26;;;;;;;4.18;2.35;;;;;;;19.59;34.56;100157.47;4964978;28;20198;-93
2023/03/26 12:42:56;;;;;;;2.65;1.90;;;;;;;19.16;34.86;100161.22;4952684;28;20027;-93
2023/03/26 12:45:27;;;;;;;5.75;1.70;;;;;;;19.49;34.61;100148.22;4934095;28;20041;-92
2023/03/26 12:47:53;;;;;;;1.90;1.30;;;;;;;20.05;33.64;100135.19;4942489;28;20097;-94
2023/03/26 12:50:18;;;;;;;2.97;1.70;;;;;;;20.14;33.91;100125.59;4945296;28;20106;-93
2023/03/26 12:53:05;;;;;;;3.85;1.60;;;;;;;20.51;33.62;100139.81;4943256;28;20042;-91
2023/03/26 12:55:35;;;;;;;6.30;2.25;;;;;;;20.57;33.61;100148.97;4944571;29;20046;-93
2023/03/26 12:58:34;;;;;;;2.72;1.55;;;;;;;20.33;33.44;100156.34;4962324;29;20093;-93
2023/03/26 13:01:19;;;;;;;2.65;1.60;;;;;;;19.88;34.47;100141.34;4989714;28;20089;-95
2023/03/26 13:03:44;;;;;;;2.60;1.70;;;;;;;19.79;34.65;100132.66;4952776;28;20043;-89
2023/03/26 13:06:21;;;;;;;5.28;1.70;;;;;;;19.93;34.20;100137.91;4977010;28;20122;-92
2023/03/26 13:09:20;;;;;;;2.47;1.60;;;;;;;20.04;33.94;100137.06;4959023;28;20034;-91
2023/03/26 13:11:48;;;;;;;2.13;1.50;;;;;;;19.95;33.38;100124.88;4945175;28;20035;-91
2023/03/26 13:14:39;;;;;;;4.10;1.80;;;;;;;19.75;34.25;100117.84;4950244;29;20146;-92
2023/03/26 13:17:42;;;;;;;4.95;1.70;;;;;;;19.69;34.39;100123.38;4935201;29;20039;-92
2023/03/26 13:20:31;;;;;;;3.75;1.63;;;;;;;19.66;34.37;100119.19;4945900;28;20050;-92
2023/03/26 13:23:15;;;;;;;3.63;1.88;;;;;;;19.53;34.96;100128.44;4964133;28;20086;-90
2023/03/26 13:25:50;;;;;;;2.50;1.70;;;;;;;19.58;34.51;100127.72;4972305;28;20038;-90
2023/03/26 13:28:34;;;;;;;4.78;1.75;;;;;;;19.83;34.29;100122.13;4947647;28;20462;-90
2023/03/26 13:31:18;;;;;;;3.65;1.70;;;;;;;19.63;34.25;100103.31;4961274;28;20047;-95
2023/03/26 13:33:48;;;;;;;2.88;1.63;;;;;;;19.73;34.17;100128.13;4954951;28;20050;-93
2023/03/26 13:36:19;;;;;;;3.30;1.75;;;;;;;19.81;34.39;100125.09;4957266;28;20205;-89
2023/03/26 13:39:03;;;;;;;10.73;1.90;;;;;;;19.94;34.41;100102.19;4952848;28;20045;-93
2023/03/26 13:41:53;;;;;;;3.58;1.75;;;;;;;20.01;34.37;100100.19;4944059;28;20114;-93
2023/03/26 13:44:30;;;;;;;7.82;2.00;;;;;;;20.13;34.40;100137.56;4930872;28;20049;-93
2023/03/26 13:47:02;;;;;;;3.72;1.95;;;;;;;20.13;34.28;100138.38;4960971;28;20444;-95
2023/03/26 13:49:40;;;;;;;3.17;1.83;;;;;;;19.94;34.75;100134.94;4941767;28;20041;-95
2023/03/26 13:52:08;;;;;;;4.97;1.75;;;;;;;19.78;34.90;100128.28;4929213;28;20051;-89
2023/03/26 13:55:07;;;;;;;5.40;1.85;;;;;;;19.30;35.28;100093.75;4976772;28;20078;-91
2023/03/26 14:00:52;;;;;;;2.75;1.90;;;;;;;19.41;35.75;100127.56;4950987;29;20076;-92
2023/03/26 14:03:47;;;;;;;4.03;2.45;;;;;;;19.13;35.93;100092.75;4932033;29;20059;-92
2023/03/26 14:06:52;;;;;;;6.75;2.03;;;;;;;19.00;36.50;100107.38;4933286;28;20055;-95
2023/03/26 14:09:25;;;;;;;4.13;2.28;;;;;;;18.29;40.17;100087.88;4868719;29;20080;-93
2023/03/26 14:12:19;;;;;;;4.40;1.42;;;;;;;17.61;45.50;100129.44;4897459;29;20456;-93
2023/03/26 14:14:48;;;;;;;8.98;1.80;;;;;;;16.83;47.17;100088.94;4912707;29;20044;-92
2023/03/26 14:17:28;;;;;;;3.60;1.50;;;;;;;16.49;49.57;100123.47;5007381;23;20060;-91
2023/03/26 14:20:14;;;;;;;3.35;1.60;;;;;;;16.36;50.87;100140.59;4890612;29;20095;-90
2023/03/26 14:22:53;;;;;;;;;;;;;;;16.13;51.88;100135.66;4906018;29;20049;-90
2023/03/26 14:25:37;;;;;;;4.50;1.45;;;;;;;16.36;51.39;100140.59;4908074;29;19957;-88
2023/03/26 14:28:40;;;;;;;2.88;1.70;;;;;;;16.45;51.04;100117.63;4899843;29;20135;-89
2023/03/26 14:31:23;;;;;;;7.68;1.92;;;;;;;16.11;52.10;100110.63;4905046;29;20098;-88
2023/03/26 14:33:56;;;;;;;3.33;1.83;;;;;;;16.04;51.90;100094.34;4907635;29;20078;-90
2023/03/26 14:36:58;;;;;;;4.22;1.67;;;;;;;16.19;51.81;100128.53;4883556;29;20421;-89
2023/03/26 14:39:45;;;;;;;2.80;1.42;;;;;;;15.72;52.96;100136.69;4908249;29;20036;-89
2023/03/26 14:42:37;;;;;;;3.63;1.73;;;;;;;15.85;52.96;100143.16;4925388;29;20103;-90
2023/03/26 14:45:11;;;;;;;4.30;2.30;;;;;;;15.75;53.52;100135.44;4889509;29;20075;-90
2023/03/26 14:47:40;;;;;;;3.35;1.42;;;;;;;15.75;53.48;100138.16;4893219;29;20507;-90
2023/03/26 14:51:04;;;;;;;5.50;1.85;;;;;;;15.54;53.32;100114.75;4889229;29;20091;-90
2023/03/26 14:53:50;;;;;;;5.25;2.17;;;;;;;15.99;52.29;100134.81;4880736;29;20192;-91
2023/03/26 14:56:45;;;;;;;;;;;;;;;16.99;50.20;100134.59;4899010;29;20036;-91
2023/03/26 14:59:33;;;;;;;5.68;1.50;;;;;;;17.33;49.28;100138.00;4904126;29;19957;-93
2023/03/26 15:02:28;;;;;;;3.92;1.85;;;;;;;16.83;50.22;100132.38;4906852;29;20050;-90
2023/03/26 15:04:53;;;;;;;;;;;;;;;16.79;50.20;100148.28;4917419;29;20040;-91
2023/03/26 15:07:36;;;;;;;4.15;1.42;;;;;;;16.34;50.87;100129.16;4925417;29;19975;-88
2023/03/26 15:10:14;;;;;;;3.83;1.70;;;;;;;16.63;51.27;100154.13;4902226;29;20051;-90
2023/03/26 15:13:17;;;;;;;4.25;1.52;;;;;;;16.39;51.85;100155.66;4898110;29;20064;-89
2023/03/26 15:15:53;;;;;;;3.28;1.50;;;;;;;15.37;54.82;100157.66;4913243;29;20436;-89
2023/03/26 15:18:26;;;;;;;3.85;1.58;;;;;;;15.23;55.12;100118.88;4893158;29;20440;-89